sensor_id;sensor_type;location;lat;lon;timestamp;pressure;altitude;pressure_sealevel;temperature;humidity
60874;BME280;46715;40.642;-7.920;2023-04-24T00:00:26;96468.13;;;13.77;100.00
60874;BME280;46715;40.642;-7.920;2023-04-24T00:02:27;96459.38;;;13.68;100.00
60874;BME280;46715;40.642;-7.920;2023-04-24T00:04:27;96465.09;;;13.70;100.00
60874;BME280;46715;40.642;-7.920;2023-04-24T00:06:29;96466.59;;;13.76;100.00
60874;BME280;46715;40.642;-7.920;2023-04-24T00:08:33;96474.38;;;13.81;100.00
60874;BME280;46715;40.642;-7.920;2023-04-24T00:10:34;96471.00;;;13.80;100.00
60874;BME280;46715;40.642;-7.920;2023-04-24T00:12:35;96470.69;;;13.82;100.00
60874;BME280;46715;40.642;-7.920;2023-04-24T00:14:36;96472.03;;;13.79;100.00
60874;BME280;46715;40.642;-7.920;2023-04-24T00:16:37;96478.63;;;13.77;100.00
60874;BME280;46715;40.642;-7.920;2023-04-24T00:18:38;96481.75;;;13.79;100.00
60874;BME280;46715;40.642;-7.920;2023-04-24T00:20:39;96467.59;;;13.80;100.00
60874;BME280;46715;40.642;-7.920;2023-04-24T00:22:41;96482.31;;;13.76;100.00
60874;BME280;46715;40.642;-7.920;2023-04-24T00:24:42;96477.56;;;13.78;100.00
60874;BME280;46715;40.642;-7.920;2023-04-24T00:26:43;96486.44;;;13.82;100.00
60874;BME280;46715;40.642;-7.920;2023-04-24T00:28:44;96490.66;;;13.78;100.00
60874;BME280;46715;40.642;-7.920;2023-04-24T00:30:45;96478.91;;;13.75;100.00
60874;BME280;46715;40.642;-7.920;2023-04-24T00:32:46;96487.91;;;13.69;100.00
60874;BME280;46715;40.642;-7.920;2023-04-24T00:34:47;96482.03;;;13.77;100.00
60874;BME280;46715;40.642;-7.920;2023-04-24T00:36:48;96488.00;;;13.83;100.00
60874;BME280;46715;40.642;-7.920;2023-04-24T00:38:53;96489.00;;;13.87;100.00
60874;BME280;46715;40.642;-7.920;2023-04-24T00:40:54;96489.34;;;14.00;100.00
60874;BME280;46715;40.642;-7.920;2023-04-24T00:42:55;96487.63;;;14.09;100.00
60874;BME280;46715;40.642;-7.920;2023-04-24T00:44:56;96475.09;;;14.25;100.00
60874;BME280;46715;40.642;-7.920;2023-04-24T00:46:58;96471.56;;;14.35;100.00
60874;BME280;46715;40.642;-7.920;2023-04-24T00:48:59;96465.94;;;14.41;100.00
60874;BME280;46715;40.642;-7.920;2023-04-24T00:51:00;96468.41;;;14.52;100.00
60874;BME280;46715;40.642;-7.920;2023-04-24T00:53:01;96469.59;;;14.59;100.00
60874;BME280;46715;40.642;-7.920;2023-04-24T00:55:03;96471.09;;;14.65;100.00
60874;BME280;46715;40.642;-7.920;2023-04-24T00:57:04;96466.75;;;14.75;100.00
60874;BME280;46715;40.642;-7.920;2023-04-24T00:59:05;96470.56;;;14.82;100.00
60874;BME280;46715;40.642;-7.920;2023-04-24T01:01:08;96464.16;;;14.89;100.00
60874;BME280;46715;40.642;-7.920;2023-04-24T01:03:09;96464.38;;;14.92;100.00
60874;BME280;46715;40.642;-7.920;2023-04-24T01:05:12;96465.44;;;15.05;100.00
60874;BME280;46715;40.642;-7.920;2023-04-24T01:07:13;96455.72;;;15.06;100.00
60874;BME280;46715;40.642;-7.920;2023-04-24T01:09:14;96462.81;;;15.05;100.00
60874;BME280;46715;40.642;-7.920;2023-04-24T01:11:15;96459.00;;;14.97;100.00
60874;BME280;46715;40.642;-7.920;2023-04-24T01:13:16;96458.41;;;14.87;100.00
60874;BME280;46715;40.642;-7.920;2023-04-24T01:15:19;96457.94;;;14.85;100.00
60874;BME280;46715;40.642;-7.920;2023-04-24T01:17:20;96453.72;;;14.83;100.00
60874;BME280;46715;40.642;-7.920;2023-04-24T01:19:21;96454.44;;;14.89;99.92
60874;BME280;46715;40.642;-7.920;2023-04-24T01:21:22;96454.25;;;14.86;99.83
60874;BME280;46715;40.642;-7.920;2023-04-24T01:23:25;96450.34;;;14.83;99.68
60874;BME280;46715;40.642;-7.920;2023-04-24T01:25:26;96454.59;;;14.79;99.85
60874;BME280;46715;40.642;-7.920;2023-04-24T01:27:31;96448.84;;;14.77;99.90
60874;BME280;46715;40.642;-7.920;2023-04-24T01:29:31;96451.59;;;14.72;99.78
60874;BME280;46715;40.642;-7.920;2023-04-24T01:31:33;96450.72;;;14.76;98.43
60874;BME280;46715;40.642;-7.920;2023-04-24T01:33:34;96455.44;;;14.60;98.96
60874;BME280;46715;40.642;-7.920;2023-04-24T01:35:35;96452.66;;;14.52;99.56
60874;BME280;46715;40.642;-7.920;2023-04-24T01:37:36;96458.56;;;14.62;99.37
60874;BME280;46715;40.642;-7.920;2023-04-24T01:39:40;96459.06;;;14.64;99.69
60874;BME280;46715;40.642;-7.920;2023-04-24T01:41:41;96457.94;;;14.85;99.00
60874;BME280;46715;40.642;-7.920;2023-04-24T01:43:43;96454.53;;;14.84;99.00
60874;BME280;46715;40.642;-7.920;2023-04-24T01:45:43;96452.34;;;14.72;99.34
60874;BME280;46715;40.642;-7.920;2023-04-24T01:47:44;96451.09;;;14.70;99.51
60874;BME280;46715;40.642;-7.920;2023-04-24T01:49:45;96454.41;;;14.75;99.90
60874;BME280;46715;40.642;-7.920;2023-04-24T01:51:46;96463.38;;;14.74;99.88
60874;BME280;46715;40.642;-7.920;2023-04-24T01:53:48;96450.50;;;14.73;100.00
60874;BME280;46715;40.642;-7.920;2023-04-24T01:55:53;96451.00;;;14.75;100.00
60874;BME280;46715;40.642;-7.920;2023-04-24T01:57:54;96447.31;;;14.76;100.00
60874;BME280;46715;40.642;-7.920;2023-04-24T01:59:56;96434.66;;;14.78;100.00
60874;BME280;46715;40.642;-7.920;2023-04-24T02:01:57;96433.63;;;14.79;100.00
60874;BME280;46715;40.642;-7.920;2023-04-24T02:03:59;96426.78;;;14.78;100.00
60874;BME280;46715;40.642;-7.920;2023-04-24T02:05:59;96420.97;;;14.81;100.00
60874;BME280;46715;40.642;-7.920;2023-04-24T02:08:00;96422.34;;;14.78;100.00
60874;BME280;46715;40.642;-7.920;2023-04-24T02:10:03;96422.91;;;14.75;100.00
60874;BME280;46715;40.642;-7.920;2023-04-24T02:12:07;96414.56;;;14.73;100.00
60874;BME280;46715;40.642;-7.920;2023-04-24T02:14:08;96410.94;;;14.69;100.00
60874;BME280;46715;40.642;-7.920;2023-04-24T02:16:08;96406.28;;;14.66;100.00
60874;BME280;46715;40.642;-7.920;2023-04-24T02:18:09;96405.28;;;14.62;100.00
60874;BME280;46715;40.642;-7.920;2023-04-24T02:20:10;96412.63;;;14.60;100.00
60874;BME280;46715;40.642;-7.920;2023-04-24T02:22:12;96415.25;;;14.60;100.00
60874;BME280;46715;40.642;-7.920;2023-04-24T02:24:13;96415.06;;;14.56;100.00
60874;BME280;46715;40.642;-7.920;2023-04-24T02:26:15;96403.78;;;14.56;100.00
60874;BME280;46715;40.642;-7.920;2023-04-24T02:28:18;96401.75;;;14.53;100.00
60874;BME280;46715;40.642;-7.920;2023-04-24T02:30:18;96404.16;;;14.49;100.00
60874;BME280;46715;40.642;-7.920;2023-04-24T02:32:21;96399.00;;;14.44;100.00
60874;BME280;46715;40.642;-7.920;2023-04-24T02:34:22;96399.66;;;14.36;100.00
60874;BME280;46715;40.642;-7.920;2023-04-24T02:36:23;96400.03;;;14.29;100.00
60874;BME280;46715;40.642;-7.920;2023-04-24T02:38:24;96391.94;;;14.25;100.00
60874;BME280;46715;40.642;-7.920;2023-04-24T02:40:25;96391.25;;;14.20;100.00
60874;BME280;46715;40.642;-7.920;2023-04-24T02:42:26;96403.19;;;14.12;100.00
60874;BME280;46715;40.642;-7.920;2023-04-24T02:44:26;96405.59;;;14.08;100.00
60874;BME280;46715;40.642;-7.920;2023-04-24T02:46:27;96400.41;;;14.03;100.00
60874;BME280;46715;40.642;-7.920;2023-04-24T02:48:28;96406.03;;;13.96;100.00
60874;BME280;46715;40.642;-7.920;2023-04-24T02:50:29;96411.91;;;13.88;100.00
60874;BME280;46715;40.642;-7.920;2023-04-24T02:52:30;96412.56;;;13.80;100.00
60874;BME280;46715;40.642;-7.920;2023-04-24T02:54:31;96412.63;;;13.75;100.00
60874;BME280;46715;40.642;-7.920;2023-04-24T02:56:32;96410.06;;;13.70;100.00
60874;BME280;46715;40.642;-7.920;2023-04-24T02:58:35;96413.81;;;13.63;100.00
60874;BME280;46715;40.642;-7.920;2023-04-24T03:00:36;96409.69;;;13.57;100.00
60874;BME280;46715;40.642;-7.920;2023-04-24T03:02:37;96412.69;;;13.51;100.00
60874;BME280;46715;40.642;-7.920;2023-04-24T03:04:37;96412.22;;;13.43;100.00
60874;BME280;46715;40.642;-7.920;2023-04-24T03:06:40;96412.50;;;13.42;100.00
60874;BME280;46715;40.642;-7.920;2023-04-24T03:08:41;96415.66;;;13.44;100.00
60874;BME280;46715;40.642;-7.920;2023-04-24T03:10:45;96411.13;;;13.50;100.00
60874;BME280;46715;40.642;-7.920;2023-04-24T03:12:46;96407.16;;;13.52;100.00
60874;BME280;46715;40.642;-7.920;2023-04-24T03:14:47;96406.59;;;13.55;100.00
60874;BME280;46715;40.642;-7.920;2023-04-24T03:16:48;96402.84;;;13.61;100.00
60874;BME280;46715;40.642;-7.920;2023-04-24T03:18:49;96393.84;;;13.68;100.00
60874;BME280;46715;40.642;-7.920;2023-04-24T03:20:50;96390.94;;;13.69;100.00
60874;BME280;46715;40.642;-7.920;2023-04-24T03:22:51;96382.81;;;13.71;100.00
60874;BME280;46715;40.642;-7.920;2023-04-24T03:24:52;96389.66;;;13.67;100.00
60874;BME280;46715;40.642;-7.920;2023-04-24T03:26:54;96390.53;;;13.62;100.00
60874;BME280;46715;40.642;-7.920;2023-04-24T03:29:16;96382.72;;;13.57;100.00
60874;BME280;46715;40.642;-7.920;2023-04-24T03:31:17;96387.75;;;13.53;100.00
60874;BME280;46715;40.642;-7.920;2023-04-24T03:33:19;96388.31;;;13.50;100.00
60874;BME280;46715;40.642;-7.920;2023-04-24T03:35:29;96389.44;;;13.44;100.00
60874;BME280;46715;40.642;-7.920;2023-04-24T03:37:34;96394.75;;;13.39;100.00
60874;BME280;46715;40.642;-7.920;2023-04-24T03:40:01;96401.31;;;13.36;100.00
60874;BME280;46715;40.642;-7.920;2023-04-24T03:42:03;96400.84;;;13.29;100.00
60874;BME280;46715;40.642;-7.920;2023-04-24T03:44:15;96406.44;;;13.22;100.00
60874;BME280;46715;40.642;-7.920;2023-04-24T03:46:17;96401.97;;;13.23;100.00
60874;BME280;46715;40.642;-7.920;2023-04-24T03:48:25;96405.44;;;13.18;100.00
60874;BME280;46715;40.642;-7.920;2023-04-24T03:50:26;96409.63;;;13.19;100.00
60874;BME280;46715;40.642;-7.920;2023-04-24T03:52:29;96400.19;;;13.18;100.00
60874;BME280;46715;40.642;-7.920;2023-04-24T03:54:31;96409.34;;;13.21;100.00
60874;BME280;46715;40.642;-7.920;2023-04-24T03:56:33;96403.88;;;13.17;100.00
60874;BME280;46715;40.642;-7.920;2023-04-24T03:58:35;96408.16;;;13.32;100.00
60874;BME280;46715;40.642;-7.920;2023-04-24T04:00:36;96404.03;;;13.50;100.00
60874;BME280;46715;40.642;-7.920;2023-04-24T04:02:56;96398.50;;;13.52;100.00
60874;BME280;46715;40.642;-7.920;2023-04-24T04:04:57;96399.59;;;13.51;100.00
60874;BME280;46715;40.642;-7.920;2023-04-24T04:06:58;96409.69;;;13.57;100.00
60874;BME280;46715;40.642;-7.920;2023-04-24T04:09:02;96401.28;;;13.60;100.00
60874;BME280;46715;40.642;-7.920;2023-04-24T04:11:04;96410.63;;;13.67;100.00
60874;BME280;46715;40.642;-7.920;2023-04-24T04:13:05;96410.84;;;13.70;100.00
60874;BME280;46715;40.642;-7.920;2023-04-24T04:15:07;96409.28;;;13.69;100.00
60874;BME280;46715;40.642;-7.920;2023-04-24T04:17:08;96412.41;;;13.71;100.00
60874;BME280;46715;40.642;-7.920;2023-04-24T04:19:10;96409.44;;;13.78;100.00
60874;BME280;46715;40.642;-7.920;2023-04-24T04:21:11;96411.00;;;13.79;100.00
60874;BME280;46715;40.642;-7.920;2023-04-24T04:23:12;96402.38;;;13.78;100.00
60874;BME280;46715;40.642;-7.920;2023-04-24T04:25:32;96409.72;;;13.76;100.00
60874;BME280;46715;40.642;-7.920;2023-04-24T04:27:33;96397.94;;;13.74;100.00
60874;BME280;46715;40.642;-7.920;2023-04-24T04:29:39;96407.38;;;13.75;100.00
60874;BME280;46715;40.642;-7.920;2023-04-24T04:31:43;96411.06;;;13.74;100.00
60874;BME280;46715;40.642;-7.920;2023-04-24T04:33:46;96411.84;;;13.74;100.00
60874;BME280;46715;40.642;-7.920;2023-04-24T04:35:47;96409.22;;;13.74;100.00
60874;BME280;46715;40.642;-7.920;2023-04-24T04:37:59;96407.31;;;13.80;100.00
60874;BME280;46715;40.642;-7.920;2023-04-24T04:40:18;96411.75;;;13.79;100.00
60874;BME280;46715;40.642;-7.920;2023-04-24T04:42:26;96412.03;;;13.78;100.00
60874;BME280;46715;40.642;-7.920;2023-04-24T04:44:27;96417.88;;;13.75;100.00
60874;BME280;46715;40.642;-7.920;2023-04-24T04:46:28;96413.47;;;13.70;100.00
60874;BME280;46715;40.642;-7.920;2023-04-24T04:48:41;96404.69;;;13.61;100.00
60874;BME280;46715;40.642;-7.920;2023-04-24T04:50:42;96410.59;;;13.47;100.00
60874;BME280;46715;40.642;-7.920;2023-04-24T04:52:44;96410.19;;;13.40;100.00
60874;BME280;46715;40.642;-7.920;2023-04-24T04:54:55;96413.66;;;13.30;100.00
60874;BME280;46715;40.642;-7.920;2023-04-24T04:57:10;96409.38;;;13.16;100.00
60874;BME280;46715;40.642;-7.920;2023-04-24T04:59:13;96401.38;;;13.07;100.00
60874;BME280;46715;40.642;-7.920;2023-04-24T05:01:15;96412.91;;;13.06;100.00
60874;BME280;46715;40.642;-7.920;2023-04-24T05:03:19;96417.09;;;13.07;100.00
60874;BME280;46715;40.642;-7.920;2023-04-24T05:05:21;96415.06;;;12.99;100.00
60874;BME280;46715;40.642;-7.920;2023-04-24T05:07:23;96423.78;;;12.94;100.00
60874;BME280;46715;40.642;-7.920;2023-04-24T05:09:26;96418.56;;;12.89;100.00
60874;BME280;46715;40.642;-7.920;2023-04-24T05:11:35;96426.16;;;12.90;100.00
60874;BME280;46715;40.642;-7.920;2023-04-24T05:13:36;96428.59;;;12.82;100.00
60874;BME280;46715;40.642;-7.920;2023-04-24T05:15:40;96435.19;;;12.74;100.00
60874;BME280;46715;40.642;-7.920;2023-04-24T05:17:41;96439.97;;;12.67;100.00
60874;BME280;46715;40.642;-7.920;2023-04-24T05:19:44;96436.38;;;12.57;100.00
60874;BME280;46715;40.642;-7.920;2023-04-24T05:21:46;96438.81;;;12.49;100.00
60874;BME280;46715;40.642;-7.920;2023-04-24T05:23:46;96437.03;;;12.44;100.00
60874;BME280;46715;40.642;-7.920;2023-04-24T05:25:53;96436.78;;;12.40;100.00
60874;BME280;46715;40.642;-7.920;2023-04-24T05:27:55;96430.56;;;12.31;100.00
60874;BME280;46715;40.642;-7.920;2023-04-24T05:29:57;96426.75;;;12.18;100.00
60874;BME280;46715;40.642;-7.920;2023-04-24T05:31:57;96432.78;;;12.19;100.00
60874;BME280;46715;40.642;-7.920;2023-04-24T05:33:59;96436.44;;;12.18;100.00
60874;BME280;46715;40.642;-7.920;2023-04-24T05:36:00;96438.78;;;12.19;100.00
60874;BME280;46715;40.642;-7.920;2023-04-24T05:38:01;96441.91;;;12.21;100.00
60874;BME280;46715;40.642;-7.920;2023-04-24T05:40:02;96444.00;;;12.24;100.00
60874;BME280;46715;40.642;-7.920;2023-04-24T05:42:05;96443.66;;;12.31;100.00
60874;BME280;46715;40.642;-7.920;2023-04-24T05:44:05;96440.25;;;12.36;100.00
60874;BME280;46715;40.642;-7.920;2023-04-24T05:46:07;96448.81;;;12.41;100.00
60874;BME280;46715;40.642;-7.920;2023-04-24T05:48:07;96445.66;;;12.44;100.00
60874;BME280;46715;40.642;-7.920;2023-04-24T05:50:10;96449.81;;;12.51;100.00
60874;BME280;46715;40.642;-7.920;2023-04-24T05:52:11;96453.41;;;12.55;100.00
60874;BME280;46715;40.642;-7.920;2023-04-24T05:54:15;96451.56;;;12.60;100.00
60874;BME280;46715;40.642;-7.920;2023-04-24T05:56:16;96456.78;;;12.60;100.00
60874;BME280;46715;40.642;-7.920;2023-04-24T05:58:17;96462.22;;;12.64;100.00
60874;BME280;46715;40.642;-7.920;2023-04-24T06:00:18;96457.91;;;12.49;100.00
60874;BME280;46715;40.642;-7.920;2023-04-24T06:02:27;96457.97;;;12.44;100.00
60874;BME280;46715;40.642;-7.920;2023-04-24T06:04:33;96456.34;;;12.48;100.00
60874;BME280;46715;40.642;-7.920;2023-04-24T06:06:35;96453.19;;;12.51;100.00
60874;BME280;46715;40.642;-7.920;2023-04-24T06:08:37;96457.84;;;12.59;100.00
60874;BME280;46715;40.642;-7.920;2023-04-24T06:10:38;96460.13;;;12.66;100.00
60874;BME280;46715;40.642;-7.920;2023-04-24T06:12:40;96470.53;;;12.71;100.00
60874;BME280;46715;40.642;-7.920;2023-04-24T06:14:48;96465.22;;;12.82;100.00
60874;BME280;46715;40.642;-7.920;2023-04-24T06:16:56;96470.16;;;12.88;100.00
60874;BME280;46715;40.642;-7.920;2023-04-24T06:19:07;96467.66;;;13.02;100.00
60874;BME280;46715;40.642;-7.920;2023-04-24T06:21:08;96459.38;;;13.19;100.00
60874;BME280;46715;40.642;-7.920;2023-04-24T06:23:09;96461.22;;;13.43;100.00
60874;BME280;46715;40.642;-7.920;2023-04-24T06:25:10;96458.66;;;13.62;100.00
60874;BME280;46715;40.642;-7.920;2023-04-24T06:27:11;96457.03;;;13.85;100.00
60874;BME280;46715;40.642;-7.920;2023-04-24T06:29:14;96463.50;;;14.12;100.00
60874;BME280;46715;40.642;-7.920;2023-04-24T06:31:15;96466.66;;;14.28;100.00
60874;BME280;46715;40.642;-7.920;2023-04-24T06:33:16;96467.06;;;14.35;99.71
60874;BME280;46715;40.642;-7.920;2023-04-24T06:35:17;96463.63;;;14.40;100.00
60874;BME280;46715;40.642;-7.920;2023-04-24T06:37:19;96459.75;;;14.51;100.00
60874;BME280;46715;40.642;-7.920;2023-04-24T06:39:21;96466.28;;;14.54;99.10
60874;BME280;46715;40.642;-7.920;2023-04-24T06:41:22;96460.59;;;14.65;99.34
60874;BME280;46715;40.642;-7.920;2023-04-24T06:43:22;96466.00;;;14.74;99.42
60874;BME280;46715;40.642;-7.920;2023-04-24T06:45:23;96474.16;;;14.87;98.59
60874;BME280;46715;40.642;-7.920;2023-04-24T06:47:24;96483.72;;;14.96;98.19
60874;BME280;46715;40.642;-7.920;2023-04-24T06:49:24;96483.72;;;14.96;96.51
60874;BME280;46715;40.642;-7.920;2023-04-24T06:51:26;96484.31;;;15.07;97.21
60874;BME280;46715;40.642;-7.920;2023-04-24T06:53:27;96478.09;;;15.17;96.96
60874;BME280;46715;40.642;-7.920;2023-04-24T06:55:27;96486.19;;;15.34;96.37
60874;BME280;46715;40.642;-7.920;2023-04-24T06:57:28;96485.81;;;15.41;95.79
60874;BME280;46715;40.642;-7.920;2023-04-24T06:59:31;96488.91;;;15.57;95.44
60874;BME280;46715;40.642;-7.920;2023-04-24T07:01:31;96492.59;;;15.70;94.79
60874;BME280;46715;40.642;-7.920;2023-04-24T07:03:32;96497.88;;;15.84;93.42
60874;BME280;46715;40.642;-7.920;2023-04-24T07:05:33;96505.06;;;15.92;92.19
60874;BME280;46715;40.642;-7.920;2023-04-24T07:07:38;96508.56;;;15.88;90.66
60874;BME280;46715;40.642;-7.920;2023-04-24T07:09:41;96509.38;;;15.88;90.01
60874;BME280;46715;40.642;-7.920;2023-04-24T07:11:42;96513.63;;;15.98;88.94
60874;BME280;46715;40.642;-7.920;2023-04-24T07:13:45;96506.47;;;16.12;89.05
60874;BME280;46715;40.642;-7.920;2023-04-24T07:15:46;96503.44;;;16.19;88.18
60874;BME280;46715;40.642;-7.920;2023-04-24T07:17:49;96511.47;;;16.00;88.52
60874;BME280;46715;40.642;-7.920;2023-04-24T07:19:50;96509.13;;;16.12;87.95
60874;BME280;46715;40.642;-7.920;2023-04-24T07:21:54;96509.28;;;16.30;87.81
60874;BME280;46715;40.642;-7.920;2023-04-24T07:23:58;96511.72;;;16.26;87.43
60874;BME280;46715;40.642;-7.920;2023-04-24T07:26:00;96515.44;;;16.48;86.36
60874;BME280;46715;40.642;-7.920;2023-04-24T07:28:01;96508.34;;;16.94;84.34
60874;BME280;46715;40.642;-7.920;2023-04-24T07:30:05;96508.44;;;18.09;79.67
60874;BME280;46715;40.642;-7.920;2023-04-24T07:32:07;96513.88;;;19.69;72.71
60874;BME280;46715;40.642;-7.920;2023-04-24T07:34:08;96501.09;;;21.35;65.94
60874;BME280;46715;40.642;-7.920;2023-04-24T07:36:09;96495.19;;;23.01;57.64
60874;BME280;46715;40.642;-7.920;2023-04-24T07:38:15;96494.53;;;24.03;53.22
60874;BME280;46715;40.642;-7.920;2023-04-24T07:40:16;96488.78;;;25.26;49.52
60874;BME280;46715;40.642;-7.920;2023-04-24T07:42:17;96487.56;;;26.27;46.22
60874;BME280;46715;40.642;-7.920;2023-04-24T07:44:18;96480.69;;;27.01;43.73
60874;BME280;46715;40.642;-7.920;2023-04-24T07:46:20;96482.31;;;27.61;42.45
60874;BME280;46715;40.642;-7.920;2023-04-24T07:48:21;96480.69;;;28.16;41.04
60874;BME280;46715;40.642;-7.920;2023-04-24T07:50:22;96484.72;;;28.76;39.74
60874;BME280;46715;40.642;-7.920;2023-04-24T07:52:23;96488.22;;;29.34;38.65
60874;BME280;46715;40.642;-7.920;2023-04-24T07:54:24;96484.38;;;29.61;38.82
60874;BME280;46715;40.642;-7.920;2023-04-24T07:56:26;96478.94;;;29.79;37.14
60874;BME280;46715;40.642;-7.920;2023-04-24T07:58:27;96483.00;;;30.34;37.18
60874;BME280;46715;40.642;-7.920;2023-04-24T08:00:28;96478.78;;;31.07;36.63
60874;BME280;46715;40.642;-7.920;2023-04-24T08:02:28;96473.19;;;31.74;33.22
60874;BME280;46715;40.642;-7.920;2023-04-24T08:04:29;96472.66;;;31.86;33.32
60874;BME280;46715;40.642;-7.920;2023-04-24T08:06:30;96475.38;;;31.86;33.57
60874;BME280;46715;40.642;-7.920;2023-04-24T08:08:32;96475.78;;;32.50;32.42
60874;BME280;46715;40.642;-7.920;2023-04-24T08:10:57;96470.97;;;32.61;31.58
60874;BME280;46715;40.642;-7.920;2023-04-24T08:13:01;96479.41;;;32.63;30.98
60874;BME280;46715;40.642;-7.920;2023-04-24T08:15:04;96473.09;;;32.46;30.84
60874;BME280;46715;40.642;-7.920;2023-04-24T08:17:06;96477.78;;;32.11;32.04
60874;BME280;46715;40.642;-7.920;2023-04-24T08:19:07;96476.38;;;32.61;31.51
60874;BME280;46715;40.642;-7.920;2023-04-24T08:21:11;96472.78;;;32.41;30.53
60874;BME280;46715;40.642;-7.920;2023-04-24T08:23:17;96476.09;;;32.25;30.21
60874;BME280;46715;40.642;-7.920;2023-04-24T08:25:18;96484.72;;;32.09;30.77
60874;BME280;46715;40.642;-7.920;2023-04-24T08:27:19;96477.91;;;30.61;32.62
60874;BME280;46715;40.642;-7.920;2023-04-24T08:29:21;96493.50;;;28.58;35.95
60874;BME280;46715;40.642;-7.920;2023-04-24T08:31:22;96491.75;;;26.62;39.98
60874;BME280;46715;40.642;-7.920;2023-04-24T08:33:23;96498.75;;;25.06;43.04
60874;BME280;46715;40.642;-7.920;2023-04-24T08:35:24;96500.00;;;24.10;45.79
60874;BME280;46715;40.642;-7.920;2023-04-24T08:37:25;96506.53;;;24.13;46.80
60874;BME280;46715;40.642;-7.920;2023-04-24T08:39:26;96499.47;;;25.26;44.88
60874;BME280;46715;40.642;-7.920;2023-04-24T08:41:28;96502.50;;;25.47;43.78
60874;BME280;46715;40.642;-7.920;2023-04-24T08:43:29;96494.78;;;26.26;42.15
60874;BME280;46715;40.642;-7.920;2023-04-24T08:45:32;96486.56;;;27.17;40.58
60874;BME280;46715;40.642;-7.920;2023-04-24T08:47:33;96490.19;;;27.39;39.40
60874;BME280;46715;40.642;-7.920;2023-04-24T08:49:36;96491.91;;;27.66;38.64
60874;BME280;46715;40.642;-7.920;2023-04-24T08:51:37;96487.94;;;27.45;39.26
60874;BME280;46715;40.642;-7.920;2023-04-24T08:53:39;96494.16;;;26.70;41.56
60874;BME280;46715;40.642;-7.920;2023-04-24T08:55:40;96497.81;;;24.75;45.55
60874;BME280;46715;40.642;-7.920;2023-04-24T08:57:41;96505.44;;;23.14;50.77
60874;BME280;46715;40.642;-7.920;2023-04-24T08:59:45;96508.41;;;21.50;54.90
60874;BME280;46715;40.642;-7.920;2023-04-24T09:01:49;96508.31;;;21.34;56.33
60874;BME280;46715;40.642;-7.920;2023-04-24T09:03:52;96505.09;;;21.41;56.27
60874;BME280;46715;40.642;-7.920;2023-04-24T09:05:53;96513.16;;;21.32;57.19
60874;BME280;46715;40.642;-7.920;2023-04-24T09:08:10;96506.41;;;21.35;56.62
60874;BME280;46715;40.642;-7.920;2023-04-24T09:10:16;96509.41;;;21.45;56.58
60874;BME280;46715;40.642;-7.920;2023-04-24T09:12:22;96505.34;;;21.73;56.13
60874;BME280;46715;40.642;-7.920;2023-04-24T09:14:24;96497.97;;;22.07;55.31
60874;BME280;46715;40.642;-7.920;2023-04-24T09:16:25;96497.91;;;22.44;54.78
60874;BME280;46715;40.642;-7.920;2023-04-24T09:18:26;96497.25;;;23.07;53.23
60874;BME280;46715;40.642;-7.920;2023-04-24T09:20:30;96494.03;;;23.81;50.59
60874;BME280;46715;40.642;-7.920;2023-04-24T09:22:31;96494.78;;;24.33;47.80
60874;BME280;46715;40.642;-7.920;2023-04-24T09:24:33;96499.53;;;24.44;48.62
60874;BME280;46715;40.642;-7.920;2023-04-24T09:26:37;96500.75;;;25.85;45.92
60874;BME280;46715;40.642;-7.920;2023-04-24T09:28:38;96497.19;;;27.51;41.76
60874;BME280;46715;40.642;-7.920;2023-04-24T09:30:39;96496.81;;;27.56;40.55
60874;BME280;46715;40.642;-7.920;2023-04-24T09:32:40;96490.66;;;27.52;39.80
60874;BME280;46715;40.642;-7.920;2023-04-24T09:34:46;96494.19;;;27.15;41.25
60874;BME280;46715;40.642;-7.920;2023-04-24T09:36:47;96495.59;;;27.43;41.29
60874;BME280;46715;40.642;-7.920;2023-04-24T09:38:48;96510.88;;;26.30;43.03
60874;BME280;46715;40.642;-7.920;2023-04-24T09:40:49;96509.81;;;25.54;44.57
60874;BME280;46715;40.642;-7.920;2023-04-24T09:42:53;96516.94;;;25.23;45.27
60874;BME280;46715;40.642;-7.920;2023-04-24T09:44:55;96513.84;;;25.67;44.81
60874;BME280;46715;40.642;-7.920;2023-04-24T09:46:57;96513.94;;;25.48;45.39
60874;BME280;46715;40.642;-7.920;2023-04-24T09:49:02;96513.03;;;25.40;45.94
60874;BME280;46715;40.642;-7.920;2023-04-24T09:51:07;96518.63;;;25.55;46.14
60874;BME280;46715;40.642;-7.920;2023-04-24T09:53:11;96507.03;;;25.24;46.58
60874;BME280;46715;40.642;-7.920;2023-04-24T09:55:18;96509.88;;;24.10;46.60
60874;BME280;46715;40.642;-7.920;2023-04-24T09:57:22;96516.97;;;24.22;46.93
60874;BME280;46715;40.642;-7.920;2023-04-24T09:59:23;96517.50;;;23.76;48.78
60874;BME280;46715;40.642;-7.920;2023-04-24T10:01:30;96515.78;;;24.19;47.11
60874;BME280;46715;40.642;-7.920;2023-04-24T10:06:04;96517.56;;;24.70;46.25
60874;BME280;46715;40.642;-7.920;2023-04-24T10:08:32;96511.16;;;25.94;43.42
60874;BME280;46715;40.642;-7.920;2023-04-24T10:10:44;96505.09;;;25.70;43.43
60874;BME280;46715;40.642;-7.920;2023-04-24T10:15:21;96511.75;;;25.07;44.18
60874;BME280;46715;40.642;-7.920;2023-04-24T10:17:23;96509.88;;;24.10;46.36
60874;BME280;46715;40.642;-7.920;2023-04-24T10:19:26;96512.13;;;24.47;46.52
60874;BME280;46715;40.642;-7.920;2023-04-24T10:21:27;96509.28;;;24.75;45.78
60874;BME280;46715;40.642;-7.920;2023-04-24T10:23:28;96516.22;;;24.21;47.07
60874;BME280;46715;40.642;-7.920;2023-04-24T10:25:30;96514.03;;;24.27;46.83
60874;BME280;46715;40.642;-7.920;2023-04-24T10:27:32;96501.88;;;24.88;45.35
60874;BME280;46715;40.642;-7.920;2023-04-24T10:29:33;96513.06;;;24.35;46.19
60874;BME280;46715;40.642;-7.920;2023-04-24T10:31:36;96511.81;;;24.68;46.28
60874;BME280;46715;40.642;-7.920;2023-04-24T10:33:38;96509.84;;;25.08;45.36
60874;BME280;46715;40.642;-7.920;2023-04-24T10:35:41;96507.09;;;25.27;44.13
60874;BME280;46715;40.642;-7.920;2023-04-24T10:37:51;96516.50;;;24.16;45.95
60874;BME280;46715;40.642;-7.920;2023-04-24T10:39:55;96510.47;;;23.67;46.47
60874;BME280;46715;40.642;-7.920;2023-04-24T10:41:56;96513.41;;;23.30;47.99